createdAt,value
2018-03-18T00:00:34.357Z,22.07
2018-03-18T00:03:02.578Z,24.27
2018-03-18T00:05:31.416Z,22.70
2018-03-18T00:07:59.806Z,23.57
2018-03-18T00:10:28.192Z,23.00
2018-03-18T00:12:56.911Z,23.60
2018-03-18T00:15:25.310Z,25.97
2018-03-18T00:17:53.986Z,24.55
2018-03-18T00:20:22.663Z,24.42
2018-03-18T00:22:51.050Z,24.70
2018-03-18T00:25:19.527Z,24.10
2018-03-18T00:27:48.338Z,22.55
2018-03-18T00:30:16.730Z,22.77
2018-03-18T00:32:45.115Z,23.63
2018-03-18T00:35:13.529Z,26.00
2018-03-18T00:37:42.960Z,23.55
2018-03-18T00:40:12.282Z,21.87
2018-03-18T00:42:40.665Z,22.77
2018-03-18T00:45:09.348Z,20.60
2018-03-18T00:47:37.734Z,25.10
2018-03-18T00:50:06.323Z,22.80
2018-03-18T00:52:35.469Z,21.93
2018-03-18T00:55:04.151Z,21.70
2018-03-18T00:57:32.749Z,22.47
2018-03-18T01:00:01.385Z,22.48
2018-03-18T01:02:30.535Z,23.03
2018-03-18T01:04:58.937Z,22.93
2018-03-18T01:07:28.091Z,21.00
2018-03-18T01:09:56.772Z,20.55
2018-03-18T01:12:25.165Z,21.23
2018-03-18T01:14:53.949Z,20.52
2018-03-18T01:17:23.189Z,21.43
2018-03-18T01:19:52.376Z,20.10
2018-03-18T01:22:20.763Z,19.77
2018-03-18T01:24:49.923Z,19.70
2018-03-18T01:27:18.430Z,19.10
2018-03-18T01:29:47.099Z,18.80
2018-03-18T01:32:15.799Z,22.05
2018-03-18T01:34:44.174Z,24.23
2018-03-18T01:37:12.847Z,20.48
2018-03-18T01:39:41.234Z,20.40
2018-03-18T01:42:09.906Z,19.12
2018-03-18T01:44:38.290Z,18.60
2018-03-18T01:47:06.966Z,20.10
2018-03-18T01:49:35.354Z,20.67
2018-03-18T01:52:04.694Z,20.27
2018-03-18T01:54:33.410Z,20.25
2018-03-18T01:57:01.939Z,23.10
2018-03-18T01:59:30.330Z,21.57
2018-03-18T02:01:59.000Z,20.45
2018-03-18T02:04:27.398Z,20.80
2018-03-18T02:06:56.561Z,20.75
2018-03-18T02:09:25.023Z,21.37
2018-03-18T02:11:53.422Z,22.10
2018-03-18T02:14:21.998Z,21.60
2018-03-18T02:16:50.436Z,21.60
2018-03-18T02:19:18.817Z,20.47
2018-03-18T02:21:47.169Z,21.30
2018-03-18T02:24:16.325Z,22.23
2018-03-18T02:26:45.040Z,20.90
2018-03-18T02:29:13.706Z,19.17
2018-03-18T02:31:42.102Z,19.07
2018-03-18T02:34:10.774Z,19.00
2018-03-18T02:36:39.650Z,19.50
2018-03-18T02:39:08.113Z,20.53
2018-03-18T02:41:36.508Z,22.93
2018-03-18T02:44:04.948Z,19.60
2018-03-18T02:46:33.345Z,23.80
2018-03-18T02:49:01.819Z,23.10
2018-03-18T02:51:30.163Z,20.77
2018-03-18T02:53:59.184Z,21.75
2018-03-18T02:56:27.591Z,24.20
2018-03-18T02:58:56.082Z,22.27
2018-03-18T03:01:24.687Z,21.73
2018-03-18T03:03:53.348Z,22.08
2018-03-18T03:06:22.232Z,24.42
2018-03-18T03:08:50.729Z,21.33
2018-03-18T03:11:19.569Z,24.73
2018-03-18T03:13:48.250Z,24.40
2018-03-18T03:16:16.927Z,24.83
2018-03-18T03:18:45.430Z,23.07
2018-03-18T03:21:14.118Z,24.00
2018-03-18T03:23:42.810Z,24.50
2018-03-18T03:26:11.356Z,24.80
2018-03-18T03:28:39.741Z,24.17
2018-03-18T03:31:08.127Z,24.97
2018-03-18T03:33:37.457Z,26.50
2018-03-18T03:36:05.994Z,25.10
2018-03-18T03:38:34.422Z,24.27
2018-03-18T03:41:02.809Z,23.07
2018-03-18T03:43:31.498Z,23.90
2018-03-18T03:46:00.170Z,23.58
2018-03-18T03:48:28.845Z,24.50
2018-03-18T03:50:57.571Z,22.97
2018-03-18T03:53:25.620Z,22.77
2018-03-18T03:55:54.777Z,25.37
2018-03-18T03:58:24.197Z,26.08
2018-03-18T04:00:53.641Z,24.70
2018-03-18T04:03:22.266Z,22.33
2018-03-18T04:05:50.885Z,22.77
2018-03-18T04:08:19.552Z,23.45
2018-03-18T04:10:47.947Z,24.20
2018-03-18T04:13:16.522Z,21.50
2018-03-18T04:15:44.927Z,24.07
2018-03-18T04:18:13.583Z,22.70
2018-03-18T04:20:42.262Z,23.25
2018-03-18T04:23:10.662Z,23.70
2018-03-18T04:25:39.330Z,21.50
2018-03-18T04:28:07.986Z,21.98
2018-03-18T04:30:36.514Z,22.13
2018-03-18T04:33:05.662Z,25.47
2018-03-18T04:35:34.060Z,23.30
2018-03-18T04:38:02.720Z,20.90
2018-03-18T04:40:31.098Z,22.40
2018-03-18T04:42:59.533Z,22.83
2018-03-18T04:45:28.686Z,21.97
2018-03-18T04:47:57.078Z,19.37
2018-03-18T04:50:25.458Z,21.23
2018-03-18T04:52:53.863Z,20.60
2018-03-18T04:55:22.529Z,22.02
2018-03-18T04:57:50.938Z,22.27
2018-03-18T05:00:19.613Z,21.77
2018-03-18T05:02:48.097Z,18.77
2018-03-18T05:05:16.361Z,20.03
2018-03-18T05:07:45.535Z,18.73
2018-03-18T05:10:14.193Z,19.43
2018-03-18T05:12:42.916Z,22.17
2018-03-18T05:15:12.505Z,18.95
2018-03-18T05:17:41.173Z,19.30
2018-03-18T05:20:09.830Z,19.80
2018-03-18T05:22:39.253Z,20.70
2018-03-18T05:25:07.978Z,20.77
2018-03-18T05:27:37.167Z,18.40
2018-03-18T05:30:05.556Z,20.80
2018-03-18T05:32:34.531Z,19.00
2018-03-18T05:35:02.974Z,18.37
2018-03-18T05:37:32.236Z,18.93
2018-03-18T05:40:00.679Z,17.40
2018-03-18T05:42:29.407Z,18.63
2018-03-18T05:44:58.034Z,18.40
2018-03-18T05:47:26.714Z,17.75
2018-03-18T05:49:55.370Z,19.20
2018-03-18T05:52:23.785Z,17.57
2018-03-18T05:54:52.274Z,17.83
2018-03-18T05:57:20.930Z,17.67
2018-03-18T05:59:49.722Z,17.97
2018-03-18T06:02:18.112Z,18.20
2018-03-18T06:04:46.518Z,17.20
2018-03-18T06:07:14.945Z,16.10
2018-03-18T06:09:43.506Z,17.53
2018-03-18T06:12:12.183Z,18.37
2018-03-18T06:14:41.357Z,17.03
2018-03-18T06:17:10.633Z,16.77
2018-03-18T06:19:39.038Z,17.57
2018-03-18T06:22:07.517Z,17.50
2018-03-18T06:24:36.195Z,17.80
2018-03-18T06:27:05.713Z,15.18
2018-03-18T06:29:34.390Z,16.70
2018-03-18T06:32:03.056Z,16.77
2018-03-18T06:34:31.454Z,16.57
2018-03-18T06:37:00.115Z,14.85
2018-03-18T06:39:28.506Z,17.20
2018-03-18T06:41:56.948Z,16.07
2018-03-18T06:44:26.275Z,15.90
2018-03-18T06:46:54.694Z,17.27
2018-03-18T06:49:23.254Z,17.13
2018-03-18T06:51:52.634Z,16.08
2018-03-18T06:54:21.026Z,15.43
2018-03-18T06:56:49.848Z,17.00
2018-03-18T06:59:18.346Z,16.33
2018-03-18T07:01:47.782Z,15.30
2018-03-18T07:04:16.250Z,15.90
2018-03-18T07:06:44.818Z,16.17
2018-03-18T07:09:13.210Z,15.53
2018-03-18T07:11:41.653Z,16.23
2018-03-18T07:14:10.233Z,15.60
2018-03-18T07:16:38.733Z,16.40
2018-03-18T07:19:07.176Z,15.30
2018-03-18T07:21:36.429Z,16.27
2018-03-18T07:24:04.704Z,14.43
2018-03-18T07:26:33.192Z,15.03
2018-03-18T07:29:01.628Z,14.73
2018-03-18T07:31:30.781Z,15.10
2018-03-18T07:33:59.365Z,15.10
2018-03-18T07:36:28.065Z,16.13
2018-03-18T07:38:57.465Z,15.27
2018-03-18T07:41:25.923Z,15.70
2018-03-18T07:43:54.520Z,16.97
2018-03-18T07:46:22.964Z,15.53
2018-03-18T07:48:51.359Z,14.33
2018-03-18T07:51:19.950Z,14.33
2018-03-18T07:53:49.381Z,15.87
2018-03-18T07:56:18.615Z,16.10
2018-03-18T07:58:48.074Z,15.07
2018-03-18T08:01:16.863Z,15.27
2018-03-18T08:03:45.614Z,17.23
2018-03-18T08:06:14.022Z,18.67
2018-03-18T08:08:42.552Z,17.43
2018-03-18T08:11:11.566Z,14.33
2018-03-18T08:13:40.886Z,14.90
2018-03-18T08:16:09.222Z,16.23
2018-03-18T08:18:38.650Z,16.70
2018-03-18T08:21:07.230Z,16.33
2018-03-18T08:23:35.910Z,13.90
2018-03-18T08:26:04.302Z,14.63
2018-03-18T08:28:33.026Z,14.53
2018-03-18T08:31:02.594Z,17.17
2018-03-18T08:33:31.402Z,15.27
2018-03-18T08:36:00.004Z,15.80
2018-03-18T08:38:28.684Z,14.65
2018-03-18T08:40:57.370Z,15.13
2018-03-18T08:43:26.817Z,13.67
2018-03-18T08:45:55.237Z,15.13
2018-03-18T08:48:23.645Z,14.17
2018-03-18T08:50:52.083Z,13.90
2018-03-18T08:53:20.767Z,15.23
2018-03-18T08:55:50.002Z,14.60
2018-03-18T08:58:19.218Z,14.17
2018-03-18T09:00:47.666Z,15.10
2018-03-18T09:03:16.379Z,14.30
2018-03-18T09:05:45.097Z,14.47
2018-03-18T09:08:14.369Z,13.83
2018-03-18T09:10:42.959Z,14.67
2018-03-18T09:13:11.685Z,13.93
2018-03-18T09:15:40.090Z,12.50
2018-03-18T09:18:08.867Z,15.27
2018-03-18T09:20:38.075Z,14.93
2018-03-18T09:23:07.449Z,15.07
2018-03-18T09:25:36.005Z,13.70
2018-03-18T09:28:04.403Z,14.67
2018-03-18T09:30:33.033Z,13.70
2018-03-18T09:33:01.442Z,15.93
2018-03-18T09:35:29.873Z,14.93
2018-03-18T09:37:58.636Z,14.50
2018-03-18T09:40:27.330Z,14.40
2018-03-18T09:42:55.959Z,15.07
2018-03-18T09:45:24.654Z,13.13
2018-03-18T09:47:53.291Z,14.40
2018-03-18T09:50:22.019Z,13.30
2018-03-18T09:52:50.407Z,13.77
2018-03-18T09:55:19.077Z,14.95
2018-03-18T09:57:48.372Z,13.20
2018-03-18T10:00:16.887Z,12.53
2018-03-18T10:02:45.578Z,13.43
2018-03-18T10:05:14.254Z,13.30
2018-03-18T10:07:43.370Z,12.87
2018-03-18T10:10:11.759Z,12.13
2018-03-18T10:12:40.442Z,12.85
2018-03-18T10:15:09.358Z,12.80
2018-03-18T10:17:38.068Z,13.95
2018-03-18T10:20:07.394Z,12.90
2018-03-18T10:22:35.797Z,13.20
2018-03-18T10:25:04.670Z,13.27
2018-03-18T10:27:33.074Z,12.23
2018-03-18T10:30:02.334Z,12.60
2018-03-18T10:32:31.026Z,13.07
2018-03-18T10:34:59.345Z,12.63
2018-03-18T10:37:27.797Z,13.20
2018-03-18T10:39:56.217Z,13.50
2018-03-18T10:42:25.948Z,12.13
2018-03-18T10:44:54.373Z,12.10
2018-03-18T10:47:23.573Z,12.70
2018-03-18T10:49:52.313Z,12.80
2018-03-18T10:52:21.384Z,12.47
2018-03-18T10:54:50.343Z,13.07
2018-03-18T10:57:19.517Z,13.63
2018-03-18T10:59:48.232Z,12.25
2018-03-18T11:02:17.197Z,13.73
2018-03-18T11:04:45.602Z,12.87
2018-03-18T11:07:14.755Z,12.90
2018-03-18T11:09:43.159Z,11.80
2018-03-18T11:12:11.540Z,12.70
2018-03-18T11:14:40.221Z,13.88
2018-03-18T11:17:08.623Z,14.57
2018-03-18T11:19:37.371Z,12.30
2018-03-18T11:22:07.143Z,12.50
2018-03-18T11:24:35.967Z,12.65
2018-03-18T11:27:04.311Z,13.62
2018-03-18T11:29:32.698Z,12.00
2018-03-18T11:32:01.367Z,13.97
2018-03-18T11:34:30.802Z,14.52
2018-03-18T11:37:00.190Z,12.30
2018-03-18T11:39:28.915Z,11.52
2018-03-18T11:41:58.069Z,11.20
2018-03-18T11:44:25.910Z,12.67
2018-03-18T11:46:54.286Z,12.90
2018-03-18T11:49:23.721Z,12.88
2018-03-18T11:51:52.383Z,13.13
2018-03-18T11:54:22.101Z,13.80
2018-03-18T11:56:50.606Z,12.57
2018-03-18T11:59:19.091Z,13.10
2018-03-18T12:01:47.534Z,13.10
2018-03-18T12:04:16.906Z,14.00
2018-03-18T12:06:46.233Z,13.07
2018-03-18T12:09:14.772Z,13.03
2018-03-18T12:11:43.370Z,12.30
2018-03-18T12:14:12.526Z,12.97
2018-03-18T12:16:41.198Z,12.45
2018-03-18T12:19:08.922Z,12.40
2018-03-18T12:21:37.002Z,12.00
2018-03-18T12:24:05.593Z,13.97
2018-03-18T12:26:35.039Z,15.57
2018-03-18T12:29:04.477Z,13.43
2018-03-18T12:31:32.972Z,13.37
2018-03-18T12:34:01.369Z,13.53
2018-03-18T12:36:30.055Z,13.62
2018-03-18T12:38:59.042Z,13.40
2018-03-18T12:41:27.589Z,13.77
2018-03-18T12:43:57.246Z,13.27
2018-03-18T12:46:25.915Z,13.40
2018-03-18T12:48:54.311Z,13.47
2018-03-18T12:51:22.646Z,14.57
2018-03-18T12:53:51.318Z,13.25
2018-03-18T12:56:20.078Z,13.40
2018-03-18T12:58:48.651Z,13.55
2018-03-18T13:01:17.034Z,12.83
2018-03-18T13:03:45.699Z,12.40
2018-03-18T13:06:14.101Z,13.73
2018-03-18T13:08:42.532Z,13.30
2018-03-18T13:11:10.930Z,12.97
2018-03-18T13:13:39.594Z,13.87
2018-03-18T13:16:07.986Z,14.53
2018-03-18T13:18:36.517Z,13.83
2018-03-18T13:21:05.346Z,14.00
2018-03-18T13:23:33.976Z,12.67
2018-03-18T13:26:02.645Z,14.05
2018-03-18T13:28:31.291Z,12.37
2018-03-18T13:30:59.681Z,12.80
2018-03-18T13:33:28.077Z,12.73
2018-03-18T13:35:56.473Z,13.10
2018-03-18T13:38:25.065Z,13.37
2018-03-18T13:40:53.413Z,13.90
2018-03-18T13:43:22.505Z,13.70
2018-03-18T13:45:51.187Z,12.57
2018-03-18T13:48:19.854Z,12.75
2018-03-18T13:50:48.243Z,13.00
2018-03-18T13:53:16.984Z,12.50
2018-03-18T13:55:46.160Z,11.40
2018-03-18T13:58:14.821Z,13.07
2018-03-18T14:00:43.215Z,11.03
2018-03-18T14:03:11.599Z,12.13
2018-03-18T14:05:40.053Z,13.10
2018-03-18T14:08:08.747Z,13.07
2018-03-18T14:10:37.142Z,11.37
2018-03-18T14:13:05.660Z,13.67
2018-03-18T14:15:34.486Z,13.60
2018-03-18T14:18:02.951Z,12.97
2018-03-18T14:20:32.382Z,12.35
2018-03-18T14:23:01.563Z,12.77
2018-03-18T14:25:30.670Z,12.40
2018-03-18T14:27:59.279Z,12.57
2018-03-18T14:30:28.437Z,14.03
2018-03-18T14:32:57.090Z,13.17
2018-03-18T14:35:25.720Z,14.30
2018-03-18T14:37:54.379Z,12.70
2018-03-18T14:40:23.034Z,13.20
2018-03-18T14:42:51.438Z,13.20
2018-03-18T14:45:19.866Z,13.97
2018-03-18T14:47:50.474Z,14.63
2018-03-18T14:50:19.046Z,12.70
2018-03-18T14:52:47.439Z,12.90
2018-03-18T14:55:15.824Z,12.73
2018-03-18T14:57:44.486Z,12.13
2018-03-18T15:00:12.882Z,13.67
2018-03-18T15:02:41.546Z,12.70
2018-03-18T15:05:09.925Z,14.07
2018-03-18T15:07:38.448Z,12.13
2018-03-18T15:10:07.590Z,13.27
2018-03-18T15:12:37.236Z,12.20
2018-03-18T15:15:05.899Z,13.10
2018-03-18T15:17:34.302Z,12.87
2018-03-18T15:20:02.751Z,13.03
2018-03-18T15:22:30.823Z,11.80
2018-03-18T15:24:59.227Z,11.80
2018-03-18T15:27:27.651Z,12.40
2018-03-18T15:29:56.068Z,12.77
2018-03-18T15:32:24.574Z,12.53
2018-03-18T15:34:52.812Z,12.00
2018-03-18T15:37:21.107Z,12.23
2018-03-18T15:39:49.578Z,12.57
2018-03-18T15:42:17.986Z,11.87
2018-03-18T15:44:46.654Z,10.23
2018-03-18T15:47:15.819Z,11.67
2018-03-18T15:49:44.222Z,13.47
2018-03-18T15:52:12.610Z,12.30
2018-03-18T15:54:41.011Z,13.23
2018-03-18T15:57:09.872Z,13.13
2018-03-18T15:59:38.478Z,11.27
2018-03-18T16:02:07.396Z,11.17
2018-03-18T16:04:35.802Z,11.53
2018-03-18T16:07:04.229Z,11.30
2018-03-18T16:09:32.669Z,12.20
2018-03-18T16:12:02.159Z,11.50
2018-03-18T16:14:30.646Z,11.00
2018-03-18T16:16:59.311Z,11.35
2018-03-18T16:19:27.799Z,11.00
2018-03-18T16:21:56.413Z,11.90
2018-03-18T16:24:25.127Z,12.50
2018-03-18T16:26:54.807Z,12.55
2018-03-18T16:29:34.320Z,10.60
2018-03-18T16:32:03.057Z,12.63
2018-03-18T16:34:31.492Z,12.20
2018-03-18T16:37:00.862Z,11.77
2018-03-18T16:39:28.946Z,11.70
2018-03-18T16:41:57.337Z,11.30
2018-03-18T16:44:25.958Z,11.50
2018-03-18T16:46:54.652Z,11.85
2018-03-18T16:49:23.340Z,11.70
2018-03-18T16:51:52.528Z,12.23
2018-03-18T16:54:21.714Z,12.50
2018-03-18T16:56:50.387Z,12.25
2018-03-18T16:59:19.082Z,11.90
2018-03-18T17:01:47.546Z,11.60
2018-03-18T17:04:16.042Z,12.20
2018-03-18T17:06:44.692Z,10.80
2018-03-18T17:09:14.002Z,10.83
2018-03-18T17:11:42.670Z,11.73
2018-03-18T17:14:11.142Z,12.20
2018-03-18T17:16:39.822Z,10.60
2018-03-18T17:19:09.331Z,11.00
2018-03-18T17:21:38.024Z,11.37
2018-03-18T17:24:06.702Z,11.50
2018-03-18T17:26:35.669Z,11.53
2018-03-18T17:29:04.305Z,11.67
2018-03-18T17:31:33.641Z,11.50
2018-03-18T17:34:02.808Z,13.87
2018-03-18T17:36:31.725Z,11.82
2018-03-18T17:39:00.927Z,12.30
2018-03-18T17:41:29.347Z,11.63
2018-03-18T17:44:00.274Z,11.90
2018-03-18T17:46:39.680Z,11.33
2018-03-18T17:49:19.619Z,10.17
2018-03-18T17:51:59.846Z,12.47
2018-03-18T17:54:39.554Z,10.93
2018-03-18T17:57:07.978Z,10.00
2018-03-18T17:59:37.150Z,10.73
2018-03-18T18:02:05.191Z,10.33
2018-03-18T18:04:33.777Z,10.20
2018-03-18T18:07:03.767Z,11.30
2018-03-18T18:09:33.198Z,10.77
2018-03-18T18:12:01.700Z,11.50
2018-03-18T18:14:31.786Z,12.13
2018-03-18T18:17:00.279Z,11.60
2018-03-18T18:19:29.809Z,11.12
2018-03-18T18:21:58.502Z,11.50
2018-03-18T18:24:26.975Z,11.33
2018-03-18T18:26:55.389Z,10.70
2018-03-18T18:29:23.955Z,11.47
2018-03-18T18:31:52.354Z,12.00
2018-03-18T18:34:21.143Z,11.03
2018-03-18T18:36:49.851Z,11.60
2018-03-18T18:39:18.260Z,10.50
2018-03-18T18:41:46.470Z,11.77
2018-03-18T18:44:15.683Z,11.47
2018-03-18T18:46:45.191Z,12.40
2018-03-18T18:49:13.875Z,11.05
2018-03-18T18:51:42.278Z,11.90
2018-03-18T18:54:11.924Z,10.43
2018-03-18T18:56:40.567Z,10.77
2018-03-18T18:59:09.623Z,10.57
2018-03-18T19:01:38.824Z,9.60
2018-03-18T19:04:07.373Z,12.33
2018-03-18T19:06:35.754Z,10.60
2018-03-18T19:09:03.603Z,10.80
2018-03-18T19:11:32.891Z,11.87
2018-03-18T19:14:01.527Z,11.07
2018-03-18T19:16:30.682Z,12.30
2018-03-18T19:18:59.158Z,11.07
2018-03-18T19:21:27.846Z,11.00
2018-03-18T19:23:56.608Z,11.43
2018-03-18T19:26:26.058Z,11.55
2018-03-18T19:28:54.729Z,10.88
2018-03-18T19:31:23.474Z,12.03
2018-03-18T19:33:51.972Z,11.83
2018-03-18T19:36:20.643Z,11.40
2018-03-18T19:38:48.848Z,12.40
2018-03-18T19:41:17.238Z,12.20
2018-03-18T19:43:45.953Z,12.80
2018-03-18T19:46:14.565Z,11.57
2018-03-18T19:48:43.167Z,12.93
2018-03-18T19:51:11.524Z,12.07
2018-03-18T19:53:40.190Z,11.20
2018-03-18T19:56:08.879Z,11.97
2018-03-18T19:58:37.543Z,10.63
2018-03-18T20:01:06.339Z,12.67
2018-03-18T20:03:35.051Z,12.55
2018-03-18T20:06:03.449Z,13.90
2018-03-18T20:08:32.195Z,13.02
2018-03-18T20:11:00.777Z,11.93
2018-03-18T20:13:29.455Z,12.20
2018-03-18T20:15:58.142Z,12.47
2018-03-18T20:18:26.940Z,12.10
2018-03-18T20:20:55.438Z,10.70
2018-03-18T20:23:23.839Z,11.60
2018-03-18T20:25:52.331Z,11.63
2018-03-18T20:28:21.002Z,13.93
2018-03-18T20:30:49.666Z,12.70
2018-03-18T20:33:19.115Z,12.63
2018-03-18T20:35:47.719Z,12.07
2018-03-18T20:38:16.302Z,13.57
2018-03-18T20:40:45.022Z,13.47
2018-03-18T20:43:13.421Z,13.03
2018-03-18T20:45:41.828Z,12.53
2018-03-18T20:48:10.420Z,11.80
2018-03-18T20:50:39.088Z,11.95
2018-03-18T20:53:07.156Z,12.70
2018-03-18T20:55:35.614Z,13.87
2018-03-18T20:58:03.969Z,11.60
2018-03-18T21:00:32.359Z,13.00
2018-03-18T21:03:01.138Z,12.60
2018-03-18T21:05:29.521Z,13.10
2018-03-18T21:07:57.914Z,12.43
2018-03-18T21:10:26.576Z,15.80
2018-03-18T21:12:54.971Z,13.00
2018-03-18T21:15:23.637Z,12.93
2018-03-18T21:17:52.019Z,14.30
2018-03-18T21:20:21.445Z,12.45
2018-03-18T21:22:49.839Z,10.37
2018-03-18T21:25:18.227Z,12.00
2018-03-18T21:27:46.902Z,11.93
2018-03-18T21:30:15.398Z,12.60
2018-03-18T21:32:43.934Z,12.93
2018-03-18T21:35:13.351Z,13.93
2018-03-18T21:37:41.826Z,14.68
2018-03-18T21:40:10.528Z,14.27
2018-03-18T21:42:39.199Z,12.77
2018-03-18T21:45:07.868Z,14.35
2018-03-18T21:47:36.293Z,14.37
2018-03-18T21:50:05.118Z,12.27
2018-03-18T21:52:33.514Z,12.90
2018-03-18T21:55:02.240Z,12.80
2018-03-18T21:57:30.812Z,11.70
2018-03-18T22:00:00.096Z,12.60
2018-03-18T22:02:28.816Z,12.43
2018-03-18T22:04:57.975Z,14.70
2018-03-18T22:07:26.370Z,14.10
2018-03-18T22:09:54.765Z,13.53
2018-03-18T22:12:23.420Z,14.18
2018-03-18T22:14:51.171Z,13.90
2018-03-18T22:17:19.563Z,14.13
2018-03-18T22:19:48.255Z,14.77
2018-03-18T22:22:16.839Z,15.00
2018-03-18T22:24:45.231Z,12.50
2018-03-18T22:27:13.695Z,13.87
2018-03-18T22:29:42.268Z,14.57
2018-03-18T22:32:10.655Z,13.50
2018-03-18T22:34:39.046Z,12.47
2018-03-18T22:37:07.438Z,12.97
2018-03-18T22:39:36.106Z,13.63
2018-03-18T22:42:04.766Z,14.25
2018-03-18T22:44:34.905Z,14.60
2018-03-18T22:47:03.310Z,12.60
2018-03-18T22:49:31.778Z,14.90
2018-03-18T22:52:01.659Z,13.27
2018-03-18T22:54:31.098Z,14.37
2018-03-18T22:56:59.764Z,14.30
2018-03-18T22:59:28.162Z,15.30
2018-03-18T23:01:57.623Z,14.77
2018-03-18T23:04:26.018Z,15.20
2018-03-18T23:06:54.394Z,13.40
2018-03-18T23:09:23.074Z,15.68
2018-03-18T23:11:51.456Z,14.93
2018-03-18T23:14:19.852Z,13.33
2018-03-18T23:16:48.526Z,14.23
2018-03-18T23:19:16.902Z,14.02
2018-03-18T23:21:45.578Z,13.10
2018-03-18T23:24:14.238Z,15.70
2018-03-18T23:26:42.719Z,15.43
2018-03-18T23:29:11.386Z,13.52
2018-03-18T23:31:39.934Z,15.13
2018-03-18T23:34:09.077Z,16.77
2018-03-18T23:36:37.470Z,15.07
2018-03-18T23:39:05.551Z,16.00
2018-03-18T23:41:34.031Z,15.02
2018-03-18T23:44:02.423Z,15.07
2018-03-18T23:46:30.817Z,15.80
2018-03-18T23:48:59.958Z,14.40
2018-03-18T23:51:29.283Z,14.90
2018-03-18T23:53:57.602Z,15.65
2018-03-18T23:56:26.128Z,15.80
2018-03-18T23:58:54.622Z,14.27
